Time;durP1;ratioP1;P1;durP2;ratioP2;P2;SDS_P1;SDS_P2;PMS_P1;PMS_P2;Temp;Humidity;BMP_temperature;BMP_pressure;BME280_temperature;BME280_humidity;BME280_pressure;Samples;Min_cycle;Max_cycle;Signal;HPM_P1;HPM_P2
2022/01/11 00:00:50;;;;;;;19.38;8.73;;;;;;;11.18;92.21;102118.97;7394240;19;20010;-66
2022/01/11 00:03:19;;;;;;;24.27;8.75;;;;;;;11.20;91.99;102124.97;7391354;19;20017;-66
2022/01/11 00:05:56;;;;;;;25.10;9.57;;;;;;;11.20;92.14;102127.59;7395088;19;20011;-66
2022/01/11 00:08:30;;;;;;;25.27;10.35;;;;;;;11.18;92.31;102132.13;7390829;19;20011;-66
2022/01/11 00:11:04;;;;;;;21.08;8.93;;;;;;;11.18;92.16;102136.56;7392837;19;20054;-67
2022/01/11 00:13:34;;;;;;;27.55;9.48;;;;;;;11.22;92.61;102138.84;7390797;19;20014;-70
2022/01/11 00:16:03;;;;;;;23.75;9.70;;;;;;;11.22;92.48;102143.28;7391608;19;20046;-66
2022/01/11 00:18:30;;;;;;;26.13;9.45;;;;;;;11.25;92.13;102140.41;7394932;19;20360;-66
2022/01/11 00:20:57;;;;;;;21.75;8.85;;;;;;;11.28;91.72;102140.97;7392198;19;20134;-68
2022/01/11 00:26:12;;;;;;;21.13;7.78;;;;;;;11.22;91.72;102151.19;7390442;19;20388;-67
2022/01/11 00:28:39;;;;;;;19.15;8.82;;;;;;;11.22;91.84;102151.19;7393636;19;20011;-68
2022/01/11 00:31:07;;;;;;;30.85;14.38;;;;;;;11.20;92.12;102146.03;7390542;19;20046;-66
2022/01/11 00:33:39;;;;;;;20.58;7.82;;;;;;;11.22;92.55;102161.72;7390418;19;20789;-67
2022/01/11 00:36:07;;;;;;;21.77;7.40;;;;;;;11.21;92.90;102158.25;7389846;19;20058;-67
2022/01/11 00:38:39;;;;;;;22.60;8.27;;;;;;;11.17;92.42;102159.47;7388171;19;20039;-68
2022/01/11 00:41:10;;;;;;;29.95;8.00;;;;;;;11.18;92.65;102160.28;7390421;19;20006;-67
2022/01/11 00:43:39;;;;;;;22.25;8.20;;;;;;;11.21;92.41;102167.94;7396654;19;20012;-66
2022/01/11 00:46:06;;;;;;;24.52;8.57;;;;;;;11.21;92.64;102165.31;7392295;19;20798;-66
2022/01/11 00:48:39;;;;;;;20.55;8.80;;;;;;;11.20;92.70;102169.75;7396937;19;20077;-66
2022/01/11 00:51:08;;;;;;;21.83;8.60;;;;;;;11.19;92.72;102167.22;7396986;19;20703;-67
2022/01/11 00:53:35;;;;;;;42.40;11.20;;;;;;;11.19;92.96;102162.78;7393663;19;20034;-66
2022/01/11 00:56:03;;;;;;;22.73;7.32;;;;;;;11.19;92.92;102165.44;7390317;19;20475;-66
2022/01/11 00:58:30;;;;;;;38.50;10.35;;;;;;;11.18;92.76;102171.66;7392683;19;20055;-66
2022/01/11 01:00:56;;;;;;;33.97;9.63;;;;;;;11.21;93.45;102168.78;7391427;19;20034;-68
2022/01/11 01:03:24;;;;;;;19.65;7.72;;;;;;;11.18;93.60;102162.91;7389457;19;20011;-68
2022/01/11 01:05:52;;;;;;;18.08;6.90;;;;;;;11.15;93.36;102158.75;7389439;19;20508;-67
2022/01/11 01:08:19;;;;;;;15.48;6.43;;;;;;;11.13;93.22;102163.28;7389168;19;20369;-68
2022/01/11 01:10:46;;;;;;;17.40;6.88;;;;;;;11.10;93.40;102164.38;7390475;19;20667;-67
2022/01/11 01:13:17;;;;;;;24.73;7.88;;;;;;;11.09;93.53;102159.22;7393870;19;20034;-68
2022/01/11 01:15:47;;;;;;;57.00;10.73;;;;;;;11.11;94.58;102150.25;7389822;19;20030;-67
2022/01/11 01:18:22;;;;;;;16.30;7.20;;;;;;;11.13;94.65;102158.84;7393297;19;20365;-67
2022/01/11 01:20:51;;;;;;;41.58;11.02;;;;;;;11.12;94.54;102159.00;7393359;19;20025;-66
2022/01/11 01:23:19;;;;;;;28.65;9.43;;;;;;;11.12;95.05;102159.81;7391918;19;20021;-66
2022/01/11 01:25:47;;;;;;;24.65;9.55;;;;;;;11.11;95.17;102163.44;7390527;19;20432;-67
2022/01/11 01:28:15;;;;;;;23.27;9.23;;;;;;;11.08;95.20;102160.19;7388807;19;20019;-66
2022/01/11 01:30:42;;;;;;;23.13;7.35;;;;;;;11.06;95.03;102170.03;7388822;19;20010;-66
2022/01/11 01:33:10;;;;;;;21.55;7.43;;;;;;;11.04;95.35;102175.41;7391065;19;20024;-66
2022/01/11 01:35:39;;;;;;;26.35;7.78;;;;;;;10.99;94.95;102174.94;7388023;19;20466;-67
2022/01/11 01:38:07;;;;;;;18.80;7.35;;;;;;;10.99;95.04;102171.47;7389314;19;20011;-67
2022/01/11 01:40:40;;;;;;;20.92;7.20;;;;;;;11.01;95.19;102178.28;7389423;19;20010;-69
2022/01/11 01:43:09;;;;;;;;;;;;;;;11.03;95.47;102172.88;7395030;19;20002;-66
2022/01/11 01:45:38;;;;;;;21.70;6.60;;;;;;;11.02;95.83;102184.41;7392184;19;19942;-66
2022/01/11 01:48:06;;;;;;;17.52;7.20;;;;;;;11.02;95.70;102187.03;7390255;19;20042;-67
2022/01/11 01:50:36;;;;;;;18.33;7.15;;;;;;;11.01;95.72;102188.00;7386934;19;20464;-67
2022/01/11 01:53:11;;;;;;;17.30;7.22;;;;;;;10.97;95.53;102186.56;7389280;19;20014;-67
2022/01/11 01:55:40;;;;;;;20.15;6.95;;;;;;;10.94;95.21;102187.63;7387982;19;20038;-67
2022/01/11 01:58:07;;;;;;;18.13;7.97;;;;;;;10.92;95.10;102186.91;7389802;19;20078;-67
2022/01/11 02:00:40;;;;;;;18.85;8.82;;;;;;;10.90;95.27;102188.84;7388756;19;20011;-67
2022/01/11 02:03:12;;;;;;;24.75;9.70;;;;;;;10.94;95.29;102194.69;7390943;19;20460;-67
2022/01/11 02:05:41;;;;;;;23.83;8.93;;;;;;;10.92;95.19;102194.00;7389339;19;20454;-67
2022/01/11 02:08:10;;;;;;;25.20;9.25;;;;;;;10.91;95.40;102189.69;7388750;19;20617;-67
2022/01/11 02:10:38;;;;;;;26.60;8.93;;;;;;;10.95;95.60;102189.31;7390244;19;20038;-67
2022/01/11 02:13:08;;;;;;;21.60;8.45;;;;;;;10.99;95.34;102185.47;7388113;19;20009;-67
2022/01/11 02:15:36;;;;;;;18.95;8.50;;;;;;;10.97;95.34;102190.00;7386676;19;20085;-67
2022/01/11 02:18:14;;;;;;;25.00;9.45;;;;;;;10.98;95.10;102185.56;7391375;19;20025;-68
2022/01/11 02:20:45;;;;;;;32.67;10.55;;;;;;;11.01;95.09;102190.63;7390374;19;20479;-67
2022/01/11 02:23:13;;;;;;;104.35;21.20;;;;;;;11.03;95.57;102191.31;7390227;19;20022;-67
2022/01/11 02:25:40;;;;;;;27.10;10.63;;;;;;;11.04;95.59;102200.91;7386728;19;20476;-67
2022/01/11 02:28:10;;;;;;;25.45;9.45;;;;;;;11.02;95.20;102192.31;7385018;19;20010;-67
2022/01/11 02:30:37;;;;;;;24.52;9.25;;;;;;;11.03;95.14;102191.31;7386821;19;20015;-68
2022/01/11 02:33:09;;;;;;;24.17;8.98;;;;;;;11.01;95.25;102177.44;7388174;19;20013;-68
2022/01/11 02:35:36;;;;;;;27.35;8.68;;;;;;;11.02;95.05;102184.41;7387667;19;20019;-68
2022/01/11 02:38:03;;;;;;;95.22;23.30;;;;;;;11.01;95.07;102182.72;7389481;19;20011;-67
2022/01/11 02:40:30;;;;;;;23.25;9.27;;;;;;;11.06;95.20;102180.56;7389905;19;20019;-67
2022/01/11 02:42:56;;;;;;;25.95;9.65;;;;;;;11.08;94.73;102184.72;7389471;19;20094;-67
2022/01/11 02:45:24;;;;;;;28.58;9.90;;;;;;;11.10;95.09;102180.19;7386627;19;20668;-66
2022/01/11 02:47:51;;;;;;;27.05;9.18;;;;;;;11.11;94.79;102186.28;7389118;19;20007;-68
2022/01/11 02:50:19;;;;;;;23.98;9.30;;;;;;;11.06;94.33;102185.81;7386184;19;20015;-67
2022/01/11 02:52:46;;;;;;;25.17;9.45;;;;;;;11.08;94.40;102187.38;7389860;19;20368;-66
2022/01/11 02:55:14;;;;;;;20.88;7.25;;;;;;;11.10;93.94;102192.53;7390103;19;20022;-67
2022/01/11 02:57:42;;;;;;;22.23;9.68;;;;;;;11.09;94.62;102182.94;7387970;19;20031;-66
2022/01/11 03:00:14;;;;;;;21.98;8.27;;;;;;;11.09;94.36;102183.78;7387089;19;20399;-66
2022/01/11 03:02:42;;;;;;;52.22;12.13;;;;;;;11.07;94.02;102182.25;7386088;19;20034;-66
2022/01/11 03:05:11;;;;;;;21.55;7.95;;;;;;;11.05;94.26;102176.25;7385963;19;20143;-67
2022/01/11 03:07:40;;;;;;;21.85;7.75;;;;;;;11.05;94.32;102187.63;7385034;19;20003;-66
2022/01/11 03:10:24;;;;;;;18.60;7.93;;;;;;;11.07;94.27;102193.59;7389867;19;20019;-66
2022/01/11 03:12:51;;;;;;;22.30;7.95;;;;;;;11.10;94.70;102198.63;7391372;19;20018;-67
2022/01/11 03:15:18;;;;;;;22.65;7.28;;;;;;;11.07;94.33;102198.03;7385436;19;20011;-66
2022/01/11 03:17:46;;;;;;;22.15;8.25;;;;;;;11.11;94.38;102196.84;7390062;19;20034;-66
2022/01/11 03:20:13;;;;;;;15.35;7.20;;;;;;;11.09;94.23;102186.41;7389274;19;20003;-67
2022/01/11 03:22:40;;;;;;;23.35;9.05;;;;;;;11.12;94.33;102191.41;7392376;19;20050;-66
2022/01/11 03:25:08;;;;;;;22.77;7.43;;;;;;;11.13;94.40;102190.47;7394637;19;20010;-65
2022/01/11 03:27:35;;;;;;;13.65;5.68;;;;;;;11.14;94.13;102188.69;7391787;19;20486;-68
2022/01/11 03:30:04;;;;;;;14.13;5.57;;;;;;;11.15;94.19;102198.25;7392369;19;20006;-66
2022/01/11 03:32:31;;;;;;;18.80;5.80;;;;;;;11.13;93.51;102192.25;7391729;19;20014;-66
2022/01/11 03:35:05;;;;;;;21.98;5.68;;;;;;;11.13;93.73;102194.91;7391708;19;21159;-67
2022/01/11 03:37:32;;;;;;;16.75;5.93;;;;;;;11.17;93.50;102193.72;7394138;19;20011;-66
2022/01/11 03:39:59;;;;;;;15.10;5.20;;;;;;;11.13;92.99;102198.38;7393636;19;20022;-67
2022/01/11 03:42:26;;;;;;;15.35;4.57;;;;;;;11.07;92.58;102188.31;7397389;19;20014;-68
2022/01/11 03:44:54;;;;;;;16.67;5.93;;;;;;;11.06;92.46;102191.09;7393094;19;20010;-67
2022/01/11 03:47:23;;;;;;;22.30;6.30;;;;;;;11.08;92.75;102186.53;7396118;19;20007;-67
2022/01/11 03:49:50;;;;;;;25.08;7.20;;;;;;;11.11;93.22;102188.94;7393808;19;20003;-66
2022/01/11 03:52:17;;;;;;;15.55;5.50;;;;;;;11.13;93.01;102187.84;7395079;19;20010;-67
2022/01/11 03:55:02;;;;;;;20.50;4.97;;;;;;;11.10;92.50;102190.72;7396613;19;20010;-67
2022/01/11 03:57:30;;;;;;;18.90;6.30;;;;;;;11.08;92.48;102194.41;7394775;19;20373;-66
2022/01/11 03:59:59;;;;;;;10.38;3.78;;;;;;;11.08;92.50;102197.06;7394575;19;20451;-67
2022/01/11 04:02:27;;;;;;;9.35;2.80;;;;;;;11.07;92.41;102198.84;7391264;19;20344;-66
2022/01/11 04:04:54;;;;;;;7.07;2.88;;;;;;;11.05;92.17;102202.59;7395626;19;20010;-69
2022/01/11 04:07:25;;;;;;;34.13;6.97;;;;;;;11.07;92.71;102211.22;7392193;19;20529;-66
2022/01/11 04:09:54;;;;;;;18.05;4.68;;;;;;;11.11;93.21;102205.56;7393069;19;20010;-67
2022/01/11 04:12:22;;;;;;;12.43;3.50;;;;;;;11.13;93.53;102208.91;7395429;19;20034;-67
2022/01/11 04:14:49;;;;;;;25.23;7.82;;;;;;;11.11;92.67;102210.84;7393396;19;20086;-67
2022/01/11 04:17:17;;;;;;;9.10;2.65;;;;;;;11.09;92.38;102209.28;7394520;19;20007;-66
2022/01/11 04:19:44;;;;;;;9.98;2.83;;;;;;;11.10;92.25;102208.31;7391700;19;20014;-67
2022/01/11 04:22:11;;;;;;;8.45;2.20;;;;;;;11.11;92.39;102224.00;7392273;19;20038;-66
2022/01/11 04:24:38;;;;;;;9.32;3.45;;;;;;;11.10;92.48;102230.22;7392260;19;20050;-66
2022/01/11 04:27:05;;;;;;;11.85;3.50;;;;;;;11.06;91.96;102241.13;7396309;19;20030;-66
2022/01/11 04:29:32;;;;;;;9.52;2.95;;;;;;;11.05;92.40;102250.00;7391385;19;20180;-67
2022/01/11 04:31:59;;;;;;;13.38;3.17;;;;;;;11.04;92.17;102251.78;7393496;19;20019;-67
2022/01/11 04:34:28;;;;;;;7.07;2.45;;;;;;;11.06;92.53;102252.50;7391425;19;20002;-66
2022/01/11 04:36:55;;;;;;;18.58;4.75;;;;;;;11.07;92.59;102263.88;7390880;19;20011;-66
2022/01/11 04:39:22;;;;;;;12.25;3.05;;;;;;;11.11;93.07;102271.44;7390482;19;20340;-67
2022/01/11 04:41:50;;;;;;;14.63;3.90;;;;;;;11.13;92.87;102276.56;7391173;19;20014;-67
2022/01/11 04:44:17;;;;;;;10.43;3.13;;;;;;;11.15;93.20;102274.66;7390356;19;20033;-67
2022/01/11 04:46:46;;;;;;;13.57;4.38;;;;;;;11.19;93.46;102286.63;7393928;19;20720;-65
2022/01/11 04:49:13;;;;;;;18.13;6.07;;;;;;;11.23;93.62;102293.31;7392138;19;20472;-68
2022/01/11 04:51:40;;;;;;;9.25;2.72;;;;;;;11.26;93.69;102287.81;7396212;19;20006;-67
2022/01/11 04:54:07;;;;;;;25.90;10.75;;;;;;;11.26;93.38;102297.53;7393380;19;20015;-68
2022/01/11 04:56:34;;;;;;;20.73;7.65;;;;;;;11.26;93.69;102293.09;7395175;19;20037;-65
2022/01/11 04:59:01;;;;;;;11.52;2.92;;;;;;;11.26;93.92;102285.19;7389510;19;20030;-66
2022/01/11 05:01:30;;;;;;;163.77;47.55;;;;;;;11.24;93.35;102286.25;7395432;19;20010;-65
2022/01/11 05:03:58;;;;;;;25.38;8.20;;;;;;;11.24;93.30;102280.97;7392664;19;20015;-65
2022/01/11 05:06:25;;;;;;;14.27;4.30;;;;;;;11.20;92.74;102275.13;7389468;19;20006;-67
2022/01/11 05:08:52;;;;;;;11.40;4.70;;;;;;;11.18;92.63;102284.94;7389060;19;20007;-67
2022/01/11 05:11:20;;;;;;;10.07;3.38;;;;;;;11.19;93.27;102270.81;7391512;19;20011;-66
2022/01/11 05:13:47;;;;;;;22.50;6.18;;;;;;;11.21;93.16;102275.97;7394417;19;20011;-67
2022/01/11 05:16:13;;;;;;;13.90;4.32;;;;;;;11.24;93.33;102283.63;7391134;19;20034;-67
2022/01/11 05:18:40;;;;;;;6.97;3.10;;;;;;;11.19;93.21;102283.97;7395440;19;20009;-67
2022/01/11 05:21:07;;;;;;;6.10;2.40;;;;;;;11.15;93.04;102283.41;7389324;19;20521;-67
2022/01/11 05:23:35;;;;;;;9.60;3.00;;;;;;;11.11;92.77;102287.22;7390458;19;20007;-68
2022/01/11 05:26:02;;;;;;;9.02;2.67;;;;;;;11.10;93.04;102293.44;7388411;19;20050;-67
2022/01/11 05:28:30;;;;;;;14.68;5.10;;;;;;;11.10;93.14;102289.97;7387464;19;20404;-67
2022/01/11 05:30:57;;;;;;;9.88;2.95;;;;;;;11.12;93.41;102295.97;7388666;19;20011;-67
2022/01/11 05:33:24;;;;;;;6.00;2.42;;;;;;;11.16;93.61;102292.13;7390012;19;20013;-67
2022/01/11 05:35:51;;;;;;;9.40;2.97;;;;;;;11.15;93.23;102296.56;7387654;19;20685;-67
2022/01/11 05:38:18;;;;;;;10.23;2.45;;;;;;;11.18;93.06;102297.25;7387100;19;20038;-67
2022/01/11 05:40:45;;;;;;;13.73;4.93;;;;;;;11.17;93.73;102303.53;7391265;19;20011;-67
2022/01/11 05:43:12;;;;;;;9.48;2.97;;;;;;;11.17;93.55;102306.16;7389498;19;20546;-67
2022/01/11 05:45:39;;;;;;;9.70;2.42;;;;;;;11.17;93.52;102309.63;7388779;19;20018;-66
2022/01/11 05:48:06;;;;;;;24.77;6.40;;;;;;;11.15;92.86;102296.56;7393769;19;20018;-67
2022/01/11 05:50:34;;;;;;;9.35;2.92;;;;;;;11.18;93.63;102290.19;7388119;19;20022;-67
2022/01/11 05:53:01;;;;;;;13.88;3.50;;;;;;;11.15;93.53;102296.56;7389946;19;20030;-67
2022/01/11 05:55:28;;;;;;;7.32;2.22;;;;;;;11.17;93.46;102303.53;7389319;19;20014;-67
2022/01/11 05:57:56;;;;;;;6.03;1.75;;;;;;;11.13;93.39;102295.84;7388833;19;20012;-67
2022/01/11 06:00:22;;;;;;;8.95;3.40;;;;;;;11.14;93.55;102296.69;7392134;19;20014;-66
2022/01/11 06:02:54;;;;;;;6.47;2.22;;;;;;;11.18;94.10;102292.84;7388513;19;20003;-67
2022/01/11 06:05:24;;;;;;;4.63;2.03;;;;;;;11.19;93.67;102286.63;7389520;19;20070;-68
2022/01/11 06:08:02;;;;;;;24.92;4.68;;;;;;;11.22;93.92;102288.19;7387209;19;20031;-67
2022/01/11 06:10:29;;;;;;;10.32;2.83;;;;;;;11.22;93.79;102291.66;7389524;19;20013;-68
2022/01/11 06:12:55;;;;;;;15.57;5.70;;;;;;;11.25;93.88;102290.56;7387653;19;20010;-66
2022/01/11 06:15:22;;;;;;;6.82;2.50;;;;;;;11.26;93.99;102292.25;7388218;19;20066;-66
2022/01/11 06:17:50;;;;;;;7.25;2.50;;;;;;;11.27;93.98;102288.66;7390972;19;20022;-66
2022/01/11 06:20:17;;;;;;;8.18;2.20;;;;;;;11.26;94.00;102303.63;7388895;19;20007;-68
2022/01/11 06:22:44;;;;;;;5.93;2.97;;;;;;;11.23;93.93;102295.94;7387215;19;20868;-66
2022/01/11 06:25:11;;;;;;;8.70;3.28;;;;;;;11.26;94.13;102305.44;7387619;19;20021;-67
2022/01/11 06:27:40;;;;;;;8.45;2.95;;;;;;;11.25;94.12;102296.69;7386744;19;20021;-66
2022/01/11 06:30:12;;;;;;;9.93;3.63;;;;;;;11.24;93.83;102310.81;7387151;19;20015;-67
2022/01/11 06:32:43;;;;;;;5.32;2.22;;;;;;;11.27;94.14;102309.75;7390928;19;20235;-67
2022/01/11 06:35:12;;;;;;;8.30;3.50;;;;;;;11.27;93.91;102312.38;7386140;19;20353;-67
2022/01/11 06:37:38;;;;;;;8.45;2.95;;;;;;;11.27;93.98;102313.22;7387222;19;20003;-67
2022/01/11 06:40:08;;;;;;;8.77;2.58;;;;;;;11.29;93.85;102313.06;7386231;19;20026;-68
2022/01/11 06:42:35;;;;;;;7.03;3.05;;;;;;;11.27;93.69;102315.00;7388867;19;20015;-68
2022/01/11 06:45:03;;;;;;;6.88;2.83;;;;;;;11.27;93.81;102318.50;7385920;19;20007;-67
2022/01/11 06:47:30;;;;;;;9.27;2.72;;;;;;;11.29;93.67;102323.63;7389384;19;20007;-68
2022/01/11 06:49:57;;;;;;;11.57;4.82;;;;;;;11.29;93.96;102320.97;7389946;19;20013;-71
2022/01/11 06:52:24;;;;;;;11.18;3.35;;;;;;;11.31;94.03;102322.56;7386689;19;20014;-67
2022/01/11 06:54:51;;;;;;;8.48;3.28;;;;;;;11.34;93.77;102327.56;7393259;19;20010;-67
2022/01/11 06:57:18;;;;;;;6.93;3.58;;;;;;;11.34;94.03;102340.75;7392885;19;20014;-67
2022/01/11 06:59:45;;;;;;;8.95;3.30;;;;;;;11.35;93.68;102333.69;7394012;19;20026;-68
2022/01/11 07:02:12;;;;;;;12.05;3.90;;;;;;;11.37;93.83;102339.69;7394803;19;20460;-68
2022/01/11 07:04:39;;;;;;;9.15;3.97;;;;;;;11.39;93.96;102349.13;7394818;19;20010;-67
2022/01/11 07:07:07;;;;;;;12.48;3.70;;;;;;;11.39;93.85;102351.75;7393353;19;20010;-67
2022/01/11 07:09:35;;;;;;;8.63;3.80;;;;;;;11.36;93.36;102346.75;7390887;19;20103;-66
2022/01/11 07:12:03;;;;;;;15.40;5.68;;;;;;;11.37;93.48;102351.06;7396825;19;20034;-66
2022/01/11 07:14:30;;;;;;;8.60;4.38;;;;;;;11.41;93.60;102354.28;7392692;19;20043;-66
2022/01/11 07:16:57;;;;;;;7.88;3.33;;;;;;;11.44;93.85;102351.41;7394655;19;20051;-68
2022/01/11 07:19:25;;;;;;;8.95;3.63;;;;;;;11.42;93.57;102354.19;7392242;19;20010;-66
2022/01/11 07:21:52;;;;;;;8.60;4.00;;;;;;;11.43;93.59;102357.63;7394405;19;20007;-66
2022/01/11 07:24:19;;;;;;;6.82;3.75;;;;;;;11.46;93.60;102360.03;7398216;19;20014;-68
2022/01/11 07:26:46;;;;;;;10.55;5.05;;;;;;;11.48;93.83;102360.72;7398112;19;20019;-66
2022/01/11 07:29:12;;;;;;;8.93;3.88;;;;;;;11.49;93.83;102357.16;7393178;19;20483;-67
2022/01/11 07:31:41;;;;;;;13.93;7.65;;;;;;;11.49;93.92;102358.00;7393277;19;20038;-67
2022/01/11 07:34:09;;;;;;;10.85;5.28;;;;;;;11.51;93.96;102355.25;7392292;19;20022;-66
2022/01/11 07:36:37;;;;;;;7.18;3.40;;;;;;;11.53;94.22;102354.16;7389307;19;20062;-66
2022/01/11 07:39:05;;;;;;;11.57;4.47;;;;;;;11.53;94.10;102353.31;7392119;19;20019;-67
2022/01/11 07:41:32;;;;;;;7.00;3.10;;;;;;;11.55;94.22;102361.94;7394989;19;20014;-67
2022/01/11 07:43:59;;;;;;;8.27;3.50;;;;;;;11.56;93.73;102358.34;7396597;19;20034;-67
2022/01/11 07:46:26;;;;;;;6.28;3.65;;;;;;;11.56;93.64;102358.34;7394272;19;20030;-66
2022/01/11 07:48:53;;;;;;;8.20;3.67;;;;;;;11.57;93.56;102365.31;7393136;19;20014;-68
2022/01/11 07:51:20;;;;;;;11.25;4.60;;;;;;;11.55;93.67;102368.06;7394730;19;20022;-67
2022/01/11 07:53:47;;;;;;;9.43;4.10;;;;;;;11.56;93.88;102368.91;7393966;19;20133;-67
2022/01/11 07:56:14;;;;;;;13.23;7.28;;;;;;;11.58;94.15;102374.88;7395429;19;20017;-69
2022/01/11 07:58:41;;;;;;;7.57;3.50;;;;;;;11.59;94.20;102381.81;7393237;19;20038;-67
2022/01/11 08:01:08;;;;;;;7.03;3.70;;;;;;;11.58;93.82;102374.88;7395323;19;20038;-67
2022/01/11 08:03:35;;;;;;;13.63;5.78;;;;;;;11.55;93.56;102380.41;7393047;19;20120;-68
2022/01/11 08:06:03;;;;;;;6.80;3.20;;;;;;;11.55;93.44;102377.75;7390703;19;20038;-68
2022/01/11 08:08:30;;;;;;;5.65;2.67;;;;;;;11.49;93.42;102381.72;7390352;19;20475;-67
2022/01/11 08:10:59;;;;;;;8.77;3.03;;;;;;;11.49;93.28;102389.63;7393126;19;20479;-66
2022/01/11 08:13:27;;;;;;;8.90;3.67;;;;;;;11.48;93.23;102384.47;7392334;19;20014;-67
2022/01/11 08:15:54;;;;;;;227.27;18.60;;;;;;;11.48;93.60;102381.81;7390854;19;20776;-66
2022/01/11 08:18:21;;;;;;;9.98;3.65;;;;;;;11.51;94.17;102400.06;7397838;19;20014;-68
2022/01/11 08:20:48;;;;;;;7.13;3.20;;;;;;;11.54;94.42;102398.00;7392586;19;20082;-67
2022/01/11 08:23:16;;;;;;;8.70;3.15;;;;;;;11.54;94.74;102399.81;7390403;19;20404;-67
2022/01/11 08:25:43;;;;;;;8.00;3.75;;;;;;;11.55;94.71;102398.84;7390586;19;20037;-67
2022/01/11 08:28:11;;;;;;;7.20;3.25;;;;;;;11.54;94.33;102400.63;7390676;19;20014;-67
2022/01/11 08:30:38;;;;;;;30.65;8.30;;;;;;;11.56;94.58;102416.34;7390363;19;20018;-69
2022/01/11 08:33:05;;;;;;;35.55;10.50;;;;;;;11.56;95.01;102413.72;7389850;19;20006;-68
2022/01/11 08:35:33;;;;;;;24.45;7.72;;;;;;;11.56;95.47;102411.91;7388935;19;20022;-67
2022/01/11 08:38:04;;;;;;;10.10;3.88;;;;;;;11.58;95.42;102422.31;7389618;19;20251;-67
2022/01/11 08:40:31;;;;;;;13.30;6.45;;;;;;;11.59;95.02;102419.56;7392055;19;20006;-67
2022/01/11 08:42:58;;;;;;;8.60;4.20;;;;;;;11.65;95.53;102428.81;7392929;19;20029;-67
2022/01/11 08:45:25;;;;;;;10.15;4.55;;;;;;;11.66;95.53;102432.28;7390479;19;20022;-66
2022/01/11 08:47:52;;;;;;;11.93;4.32;;;;;;;11.71;95.60;102430.97;7392876;19;20014;-68
2022/01/11 08:50:19;;;;;;;7.07;3.05;;;;;;;11.75;95.47;102426.31;7391187;19;20015;-67
2022/01/11 08:52:46;;;;;;;8.65;3.25;;;;;;;11.76;94.77;102436.75;7381942;19;20074;-67
2022/01/11 08:55:14;;;;;;;8.25;2.55;;;;;;;11.74;94.43;102433.38;7385397;19;20015;-68
2022/01/11 08:57:41;;;;;;;10.85;3.30;;;;;;;11.71;93.80;102433.59;7393653;19;20342;-68
2022/01/11 09:00:16;;;;;;;7.50;3.42;;;;;;;11.69;93.33;102440.78;7392084;19;20010;-67
2022/01/11 09:02:46;;;;;;;87.88;13.15;;;;;;;11.71;93.68;102436.25;7393168;19;20078;-67
2022/01/11 09:05:14;;;;;;;11.13;4.35;;;;;;;11.75;94.11;102439.50;7389511;19;20011;-67
2022/01/11 09:07:42;;;;;;;9.52;4.10;;;;;;;11.76;93.88;102443.81;7391446;19;20697;-68
2022/01/11 09:10:10;;;;;;;12.00;4.32;;;;;;;11.72;93.52;102439.72;7387749;19;20107;-65
2022/01/11 09:12:37;;;;;;;10.27;4.10;;;;;;;11.71;93.61;102451.22;7394581;19;20879;-67
2022/01/11 09:15:07;;;;;;;12.05;5.25;;;;;;;11.70;94.29;102445.09;7389615;19;20011;-67
2022/01/11 09:17:36;;;;;;;10.85;5.32;;;;;;;11.76;93.97;102451.72;7389567;19;20021;-68
2022/01/11 09:20:05;;;;;;;7.63;3.40;;;;;;;11.78;93.86;102461.22;7390453;19;20094;-69
2022/01/11 09:22:32;;;;;;;14.52;4.55;;;;;;;11.77;93.95;102453.41;7388362;19;20007;-68
2022/01/11 09:25:00;;;;;;;11.70;4.78;;;;;;;11.76;94.34;102464.91;7391469;19;20046;-68
2022/01/11 09:27:27;;;;;;;110.97;12.93;;;;;;;11.73;94.02;102470.44;7388454;19;20031;-67
2022/01/11 09:29:59;;;;;;;42.08;11.57;;;;;;;11.77;94.50;102474.50;7387722;19;20010;-67
2022/01/11 09:32:27;;;;;;;14.43;6.65;;;;;;;11.80;94.82;102479.53;7389208;19;20019;-67
2022/01/11 09:34:54;;;;;;;13.95;6.03;;;;;;;11.83;95.28;102479.31;7388307;19;20343;-67
2022/01/11 09:37:23;;;;;;;62.83;9.00;;;;;;;11.81;94.84;102482.06;7389396;19;20014;-68
2022/01/11 09:39:54;;;;;;;19.10;7.18;;;;;;;11.83;94.86;102487.22;7389291;19;20025;-66
2022/01/11 09:42:25;;;;;;;18.45;6.82;;;;;;;11.85;94.98;102487.94;7390013;19;20021;-67
2022/01/11 09:44:53;;;;;;;12.68;5.35;;;;;;;11.85;95.10;102493.19;7388926;19;20015;-67
2022/01/11 09:47:20;;;;;;;68.63;13.40;;;;;;;11.83;95.09;102495.97;7391193;19;20022;-67
2022/01/11 09:49:47;;;;;;;11.25;4.95;;;;;;;11.85;95.34;102499.31;7391910;19;20034;-67
2022/01/11 09:52:14;;;;;;;12.35;5.18;;;;;;;11.81;95.02;102497.88;7391666;19;20070;-66
2022/01/11 09:54:45;;;;;;;9.02;4.00;;;;;;;11.78;94.66;102513.13;7389330;19;20253;-67
2022/01/11 09:57:14;;;;;;;14.55;6.60;;;;;;;11.77;94.24;102506.16;7389285;19;20418;-67
2022/01/11 09:59:41;;;;;;;15.50;7.40;;;;;;;11.80;95.05;102513.81;7388378;19;20011;-67
2022/01/11 10:02:09;;;;;;;10.02;4.93;;;;;;;11.83;95.01;102511.81;7389696;19;20352;-68
2022/01/11 10:04:36;;;;;;;21.05;12.07;;;;;;;11.88;94.90;102514.09;7388974;19;20031;-68
2022/01/11 10:07:07;;;;;;;13.60;5.53;;;;;;;11.85;94.67;102515.16;7391024;19;20029;-68
2022/01/11 10:09:42;;;;;;;11.80;5.55;;;;;;;11.84;94.46;102521.38;7388684;19;20384;-68
2022/01/11 10:12:12;;;;;;;12.63;5.20;;;;;;;11.85;94.35;102515.16;7390945;19;20028;-68
2022/01/11 10:14:46;;;;;;;13.88;6.18;;;;;;;11.86;94.51;102522.09;7388125;19;20348;-67
2022/01/11 10:17:18;;;;;;;52.13;13.30;;;;;;;11.89;94.87;102521.84;7389836;19;20078;-67
2022/01/11 10:19:50;;;;;;;13.23;5.82;;;;;;;11.94;95.52;102530.25;7390569;19;20015;-67
2022/01/11 10:22:21;;;;;;;13.82;4.93;;;;;;;11.96;95.21;102533.63;7386921;19;20121;-67
2022/01/11 10:24:52;;;;;;;14.80;5.95;;;;;;;11.98;95.06;102531.72;7390789;19;20174;-66
2022/01/11 10:27:26;;;;;;;14.55;5.10;;;;;;;11.98;94.90;102529.06;7387975;19;20025;-68
2022/01/11 10:29:56;;;;;;;24.08;10.77;;;;;;;11.99;94.68;102536.00;7385288;19;20007;-68
2022/01/11 10:32:35;;;;;;;11.57;5.20;;;;;;;12.04;94.95;102533.00;7390344;19;20002;-66
2022/01/11 10:35:07;;;;;;;46.90;9.38;;;;;;;12.06;94.41;102536.38;7386147;19;20605;-67
2022/01/11 10:37:38;;;;;;;12.82;4.70;;;;;;;12.08;94.37;102536.25;7386233;19;20455;-66
2022/01/11 10:40:22;;;;;;;10.13;3.97;;;;;;;12.09;94.31;102537.94;7386359;19;20487;-66
2022/01/11 10:42:54;;;;;;;12.18;4.88;;;;;;;12.07;93.94;102539.84;7390988;19;20011;-67
2022/01/11 10:45:24;;;;;;;10.60;4.32;;;;;;;12.05;94.01;102537.31;7387437;19;20023;-66
2022/01/11 10:47:56;;;;;;;13.20;6.13;;;;;;;12.06;94.03;102546.09;7386565;19;20399;-68
2022/01/11 10:50:28;;;;;;;8.85;4.53;;;;;;;12.09;94.38;102554.59;7384583;19;20010;-65
2022/01/11 10:52:57;;;;;;;42.63;8.73;;;;;;;12.08;94.21;102554.72;7386197;19;20002;-67
2022/01/11 10:55:27;;;;;;;10.73;5.47;;;;;;;12.12;94.39;102558.81;7385084;19;20020;-68
2022/01/11 10:58:07;;;;;;;12.05;5.05;;;;;;;12.12;94.21;102562.28;7387811;19;20023;-66
2022/01/11 11:00:38;;;;;;;25.08;5.28;;;;;;;12.12;93.77;102562.28;7388140;19;20006;-66
2022/01/11 11:03:10;;;;;;;11.98;5.03;;;;;;;12.13;94.28;102558.69;7385553;19;20624;-67
2022/01/11 11:05:47;;;;;;;13.57;6.22;;;;;;;12.16;94.19;102550.53;7385438;19;20401;-67
2022/01/11 11:08:22;;;;;;;15.43;6.82;;;;;;;12.19;94.53;102558.19;7385194;19;20594;-68
2022/01/11 11:11:00;;;;;;;15.32;5.72;;;;;;;12.22;94.09;102550.06;7385446;19;19999;-66
2022/01/11 11:13:33;;;;;;;14.48;6.85;;;;;;;12.22;94.18;102552.69;7386951;19;20027;-66
2022/01/11 11:16:03;;;;;;;;;;;;;;;12.25;94.37;102551.59;7386750;19;20011;-66
2022/01/11 11:18:35;;;;;;;15.40;6.75;;;;;;;12.26;94.02;102559.41;7391756;19;19928;-66
2022/01/11 11:21:08;;;;;;;14.18;5.72;;;;;;;12.27;94.26;102545.25;7388530;19;20012;-67
2022/01/11 11:23:35;;;;;;;14.10;5.38;;;;;;;12.30;93.99;102546.78;7389382;19;20444;-66
2022/01/11 11:26:03;;;;;;;23.00;8.88;;;;;;;12.34;94.36;102543.78;7385366;19;20052;-68
2022/01/11 11:28:30;;;;;;;11.75;6.25;;;;;;;12.36;94.37;102547.16;7384685;19;20014;-68